Terminal Aerodrome Forecast
Issued by NWS Memphis, TN

Home | Current Version | Previous Version | Text Only | Print | Product List | Glossary On
Versions: 1 2 3 4 5 6 7 8 9 10 11 12 13 14 15
000
FTUS44 KMEG 171720
TAFMKL
TAF
KMKL 171720Z 1718/1818 17010KT P6SM BKN035 BKN250
     FM172000 18010G16KT P6SM SCT040 BKN250
     FM180400 18014G22KT P6SM BKN040 BKN250
     FM180900 19018G26KT P6SM VCSH BKN025
     FM181700 21018G26KT P6SM -SHRA BKN018 OVC025=

USA.gov is the U.S. government's official web portal to all federal, state and local government web resources and services.